Time;durP1;ratioP1;P1;durP2;ratioP2;P2;SDS_P1;SDS_P2;PMS_P1;PMS_P2;Temp;Humidity;BMP_temperature;BMP_pressure;BME280_temperature;BME280_humidity;BME280_pressure;Samples;Min_cycle;Max_cycle;Signal;HPM_P1;HPM_P2
2022/01/12 00:00:57;;;;;;;15.82;6.00;;;4.10;99.90;;;;;;5048273;28;20366;-71
2022/01/12 00:03:23;;;;;;;21.83;6.43;;;4.10;99.90;;;;;;5048085;28;20025;-72
2022/01/12 00:05:49;;;;;;;19.48;6.75;;;4.10;99.90;;;;;;5047910;28;20465;-71
2022/01/12 00:08:14;;;;;;;23.45;7.97;;;4.10;99.90;;;;;;5048140;28;20041;-71
2022/01/12 00:10:40;;;;;;;19.92;6.68;;;4.10;99.90;;;;;;5030507;28;20032;-71
2022/01/12 00:13:06;;;;;;;12.38;6.05;;;4.10;99.90;;;;;;5048150;28;20075;-71
2022/01/12 00:15:32;;;;;;;18.98;6.63;;;4.10;99.90;;;;;;5048234;28;20462;-71
2022/01/12 00:17:57;;;;;;;18.00;7.20;;;4.10;99.90;;;;;;5047653;28;20021;-71
2022/01/12 00:20:23;;;;;;;14.48;6.30;;;4.10;99.90;;;;;;5047510;28;20520;-72
2022/01/12 00:22:49;;;;;;;22.15;7.93;;;4.10;99.90;;;;;;5047692;28;20030;-72
2022/01/12 00:33:15;;;;;;;39.60;8.30;;;4.10;99.90;;;;;;5047548;28;20053;-73
2022/01/12 00:35:43;;;;;;;19.10;6.78;;;4.10;99.90;;;;;;5047918;28;20418;-72
2022/01/12 00:38:11;;;;;;;31.75;7.88;;;4.10;99.90;;;;;;5047583;28;20029;-72
2022/01/12 00:40:42;;;;;;;18.90;7.75;;;4.10;99.90;;;;;;5046209;28;20026;-72
2022/01/12 00:43:08;;;;;;;17.83;6.43;;;4.10;99.90;;;;;;5047567;28;20034;-72
2022/01/12 00:45:37;;;;;;;32.53;7.95;;;4.10;99.90;;;;;;5047521;28;20086;-71
2022/01/12 00:48:04;;;;;;;21.95;8.65;;;4.20;99.90;;;;;;5047122;28;20037;-71
2022/01/12 00:50:30;;;;;;;20.60;7.38;;;4.10;99.90;;;;;;5047440;28;20049;-72
2022/01/12 00:52:56;;;;;;;21.48;8.02;;;4.20;99.90;;;;;;5029301;28;20029;-71
2022/01/12 00:55:21;;;;;;;20.42;8.20;;;4.20;99.90;;;;;;5046922;28;20025;-72
2022/01/12 00:57:48;;;;;;;26.17;7.95;;;4.20;99.90;;;;;;5047220;28;20036;-73
2022/01/12 01:00:14;;;;;;;24.67;7.40;;;4.20;99.90;;;;;;5046935;28;20021;-72
2022/01/12 01:02:40;;;;;;;16.10;7.55;;;4.20;99.90;;;;;;5047118;28;20033;-73
2022/01/12 01:05:07;;;;;;;22.55;7.40;;;4.20;99.90;;;;;;5047536;28;20098;-71
2022/01/12 01:07:33;;;;;;;14.57;6.60;;;4.10;99.90;;;;;;5046675;28;20038;-73
2022/01/12 01:10:07;;;;;;;23.17;6.93;;;4.10;99.90;;;;;;5046776;28;20029;-72
2022/01/12 01:12:35;;;;;;;12.15;5.80;;;4.10;99.90;;;;;;5047198;28;20883;-72
2022/01/12 01:15:06;;;;;;;20.98;7.22;;;4.10;99.90;;;;;;5046709;28;20028;-72
2022/01/12 01:25:50;;;;;;;;;;;4.10;99.90;;;;;;5047251;28;20090;-72
2022/01/12 01:28:17;;;;;;;23.63;9.35;;;4.10;99.90;;;;;;5046229;28;19995;-72
2022/01/12 01:30:44;;;;;;;21.38;7.75;;;4.10;99.90;;;;;;5046662;28;20026;-72
2022/01/12 01:33:14;;;;;;;20.80;8.57;;;4.10;99.90;;;;;;5046582;28;20029;-73
2022/01/12 01:35:46;;;;;;;18.80;7.70;;;4.10;99.90;;;;;;5046723;28;20025;-73
2022/01/12 01:38:12;;;;;;;23.02;8.82;;;4.10;99.90;;;;;;5046543;28;20456;-72
2022/01/12 01:40:41;;;;;;;30.67;9.77;;;4.10;99.90;;;;;;5046450;28;20038;-72
2022/01/12 01:43:22;;;;;;;27.83;10.50;;;4.10;99.90;;;;;;5028946;28;20037;-72
2022/01/12 01:54:03;;;;;;;21.70;9.30;;;4.00;99.90;;;;;;5046274;28;20087;-72
2022/01/12 01:56:29;;;;;;;18.95;8.35;;;4.00;99.90;;;;;;5045827;28;20021;-73
2022/01/12 01:58:56;;;;;;;26.52;9.45;;;4.10;99.90;;;;;;5046280;28;20462;-72
2022/01/12 02:01:22;;;;;;;20.23;8.25;;;4.00;99.90;;;;;;5045974;28;20102;-73
2022/01/12 02:03:47;;;;;;;22.80;9.55;;;4.10;99.90;;;;;;5045634;28;20049;-72
2022/01/12 02:06:15;;;;;;;22.88;8.27;;;4.00;99.90;;;;;;5046023;28;20025;-73
2022/01/12 02:08:41;;;;;;;24.88;9.15;;;4.00;99.90;;;;;;5045862;28;20038;-72
2022/01/12 02:11:07;;;;;;;28.80;8.45;;;4.00;99.90;;;;;;5045905;28;20075;-71
2022/01/12 02:13:33;;;;;;;27.52;9.18;;;4.00;99.90;;;;;;5045829;28;20034;-73
2022/01/12 02:15:59;;;;;;;26.42;9.15;;;4.00;99.90;;;;;;5027811;28;20091;-71
2022/01/12 02:36:08;;;;;;;44.72;10.88;;;3.90;99.90;;;;;;5045595;28;20036;-73
2022/01/12 02:40:31;;;;;;;28.00;10.45;;;3.90;99.90;;;;;;5045145;28;20060;-73
2022/01/12 02:43:30;;;;;;;29.48;9.65;;;3.90;99.90;;;;;;5045365;28;20029;-73
2022/01/12 02:53:42;;;;;;;30.40;11.07;;;3.90;99.90;;;;;;5045201;28;20425;-73
2022/01/12 02:56:18;;;;;;;40.75;11.57;;;3.90;99.90;;;;;;5045198;28;20089;-72
2022/01/12 02:58:46;;;;;;;32.35;10.88;;;3.90;99.90;;;;;;5044924;28;20079;-72
2022/01/12 03:03:59;;;;;;;34.33;10.52;;;3.90;99.90;;;;;;5044613;28;20041;-73
2022/01/12 03:06:32;;;;;;;32.58;9.45;;;3.90;99.90;;;;;;5044496;28;20025;-73
2022/01/12 03:08:59;;;;;;;41.28;9.45;;;4.00;99.90;;;;;;5045148;28;20045;-73
2022/01/12 03:11:26;;;;;;;39.47;11.27;;;4.00;99.90;;;;;;5044960;28;20048;-73
2022/01/12 03:13:53;;;;;;;25.02;9.77;;;3.90;99.90;;;;;;5043956;28;20029;-73
2022/01/12 03:16:22;;;;;;;36.75;12.30;;;3.90;99.90;;;;;;5043453;28;20021;-74
2022/01/12 03:18:51;;;;;;;30.65;10.90;;;3.90;99.90;;;;;;5025223;28;20026;-74
2022/01/12 03:21:19;;;;;;;30.92;8.77;;;3.90;99.90;;;;;;5042830;28;20053;-74
2022/01/12 03:23:45;;;;;;;33.63;10.40;;;3.80;99.90;;;;;;5043032;28;20440;-74
2022/01/12 03:26:11;;;;;;;30.30;10.65;;;3.90;99.90;;;;;;5043098;28;20029;-73
2022/01/12 03:28:40;;;;;;;26.25;8.15;;;3.80;99.90;;;;;;5042801;28;20482;-73
2022/01/12 03:38:58;;;;;;;;;;;3.90;99.90;;;;;;5043703;28;20116;-73
2022/01/12 03:41:26;;;;;;;34.15;9.93;;;3.90;99.90;;;;;;5042927;28;19909;-73
2022/01/12 03:43:53;;;;;;;28.65;8.95;;;3.90;99.90;;;;;;5043185;28;20068;-73
2022/01/12 03:46:23;;;;;;;25.20;9.40;;;3.90;99.90;;;;;;5043327;28;20108;-73
2022/01/12 03:48:49;;;;;;;31.42;8.45;;;3.90;99.90;;;;;;5042879;28;20062;-74
2022/01/12 03:51:16;;;;;;;25.70;9.10;;;3.90;99.90;;;;;;5043664;28;20470;-74
2022/01/12 03:53:42;;;;;;;25.73;10.00;;;4.00;99.90;;;;;;5026164;28;20026;-74
2022/01/12 03:56:07;;;;;;;24.20;10.13;;;3.90;99.90;;;;;;5025785;28;20136;-73
2022/01/12 03:58:33;;;;;;;29.23;9.63;;;3.90;99.90;;;;;;5026208;28;20482;-74
2022/01/12 04:00:58;;;;;;;27.80;10.50;;;3.90;99.90;;;;;;5044374;28;20898;-74
2022/01/12 04:03:26;;;;;;;37.78;10.73;;;3.90;99.90;;;;;;5026298;28;20018;-75
2022/01/12 04:08:20;;;;;;;36.72;9.60;;;3.90;99.90;;;;;;5044046;28;20044;-74
2022/01/12 04:10:51;;;;;;;30.05;9.40;;;3.90;99.90;;;;;;5043762;28;20447;-74
2022/01/12 04:13:19;;;;;;;27.10;7.72;;;3.90;99.90;;;;;;5044239;28;20093;-74
2022/01/12 04:15:49;;;;;;;29.73;10.10;;;3.90;99.90;;;;;;5047556;28;20025;-75
2022/01/12 04:18:14;;;;;;;33.85;10.27;;;3.90;99.90;;;;;;5047845;28;20028;-75
2022/01/12 04:20:47;;;;;;;27.05;9.05;;;3.90;99.90;;;;;;5047744;28;20054;-74
2022/01/12 04:23:17;;;;;;;30.60;9.32;;;3.90;99.90;;;;;;5047651;28;20040;-74
2022/01/12 04:25:58;;;;;;;21.55;7.82;;;4.00;99.90;;;;;;5048055;28;20053;-75
2022/01/12 04:28:25;;;;;;;25.92;8.35;;;4.00;99.90;;;;;;5047779;28;20029;-73
2022/01/12 04:30:53;;;;;;;21.73;8.80;;;4.00;99.90;;;;;;5029702;28;20025;-75
2022/01/12 04:33:19;;;;;;;33.35;8.85;;;4.00;99.90;;;;;;5047807;28;20028;-74
2022/01/12 04:35:52;;;;;;;28.05;9.55;;;4.20;99.90;;;;;;5029651;28;20022;-74
2022/01/12 04:38:20;;;;;;;28.17;9.45;;;4.00;99.90;;;;;;5029352;28;20034;-74
2022/01/12 04:40:47;;;;;;;25.27;8.27;;;4.10;99.90;;;;;;5047599;28;20029;-74
2022/01/12 04:43:13;;;;;;;21.55;9.13;;;4.10;99.90;;;;;;5047564;28;20025;-73
2022/01/12 04:50:51;;;;;;;27.38;8.75;;;4.00;99.90;;;;;;5047230;28;20040;-72
2022/01/12 04:53:19;;;;;;;23.00;9.32;;;4.00;99.90;;;;;;5047274;28;20029;-72
2022/01/12 04:55:46;;;;;;;22.40;9.20;;;4.10;99.90;;;;;;5047351;28;20084;-73
2022/01/12 04:58:12;;;;;;;24.80;10.00;;;4.00;99.90;;;;;;5029270;28;20030;-73
2022/01/12 05:00:38;;;;;;;23.13;9.05;;;4.00;99.90;;;;;;5047409;28;20040;-73
2022/01/12 05:13:49;;;;;;;24.27;8.93;;;4.20;99.90;;;;;;5046939;28;20526;-72
2022/01/12 05:16:17;;;;;;;22.30;8.80;;;4.10;99.90;;;;;;5047074;28;20022;-72
2022/01/12 05:18:44;;;;;;;49.08;11.75;;;4.20;99.90;;;;;;5047133;28;20025;-73
2022/01/12 05:21:10;;;;;;;27.83;9.32;;;4.10;99.90;;;;;;5046585;28;20068;-74
2022/01/12 05:23:37;;;;;;;31.85;10.15;;;4.10;99.90;;;;;;5047104;28;20040;-73
2022/01/12 05:26:03;;;;;;;27.33;9.20;;;4.10;99.90;;;;;;5045667;28;20033;-74
2022/01/12 05:28:32;;;;;;;30.95;11.00;;;4.10;99.90;;;;;;5046630;28;20037;-73
2022/01/12 05:30:59;;;;;;;29.10;10.38;;;4.10;99.90;;;;;;5046775;28;20064;-73
2022/01/12 05:33:26;;;;;;;31.40;11.07;;;4.10;99.90;;;;;;5046407;28;20025;-74
2022/01/12 05:35:53;;;;;;;27.35;9.43;;;4.20;99.90;;;;;;5046506;28;20063;-74
2022/01/12 05:38:19;;;;;;;28.30;9.45;;;4.10;99.90;;;;;;5046684;28;20048;-74
2022/01/12 05:40:47;;;;;;;36.85;10.90;;;4.00;99.90;;;;;;5046355;28;20025;-74
2022/01/12 05:43:17;;;;;;;30.13;10.68;;;4.00;99.90;;;;;;5046430;28;20022;-74
2022/01/12 05:45:45;;;;;;;32.25;10.75;;;4.00;99.90;;;;;;5028853;28;20021;-74
2022/01/12 05:50:39;;;;;;;35.65;9.98;;;3.90;99.90;;;;;;5046564;28;20022;-73
2022/01/12 05:53:04;;;;;;;40.45;10.60;;;3.90;99.90;;;;;;5046201;28;20025;-73
2022/01/12 05:55:30;;;;;;;28.50;9.82;;;3.90;99.90;;;;;;5045997;28;20079;-74
2022/01/12 05:57:56;;;;;;;38.08;12.07;;;3.90;99.90;;;;;;5028365;28;20025;-73
2022/01/12 06:00:24;;;;;;;46.35;12.32;;;3.90;99.90;;;;;;5046099;28;20032;-73
2022/01/12 06:02:50;;;;;;;34.90;12.07;;;3.90;99.90;;;;;;5044424;28;20021;-73
2022/01/12 06:05:18;;;;;;;31.80;11.18;;;3.90;99.90;;;;;;5045020;28;20021;-73
2022/01/12 06:07:48;;;;;;;28.88;9.57;;;4.00;99.90;;;;;;5045777;28;20037;-73
2022/01/12 06:10:15;;;;;;;32.33;11.15;;;3.90;99.90;;;;;;5046179;28;20025;-74
2022/01/12 06:12:41;;;;;;;36.25;11.15;;;4.00;99.90;;;;;;5044935;28;20032;-73
2022/01/12 06:15:08;;;;;;;29.48;11.77;;;4.00;99.90;;;;;;5045714;28;20060;-72
2022/01/12 06:17:34;;;;;;;26.88;9.52;;;4.00;99.90;;;;;;5045743;28;20056;-73
2022/01/12 06:20:00;;;;;;;42.25;12.23;;;4.00;99.90;;;;;;5045673;28;20052;-73
2022/01/12 06:22:26;;;;;;;32.78;10.18;;;4.00;99.90;;;;;;5045276;28;20079;-73
2022/01/12 06:24:53;;;;;;;36.92;11.43;;;4.00;99.90;;;;;;5045668;28;20029;-73
2022/01/12 06:27:21;;;;;;;30.38;10.30;;;3.90;99.90;;;;;;5045531;28;20044;-73
2022/01/12 06:30:04;;;;;;;33.05;10.80;;;3.90;99.90;;;;;;5027664;28;20033;-73
2022/01/12 06:32:31;;;;;;;28.70;10.93;;;3.90;99.90;;;;;;5045630;28;20036;-74
2022/01/12 06:34:56;;;;;;;35.67;10.43;;;3.90;99.90;;;;;;5045252;28;20026;-74
2022/01/12 06:37:22;;;;;;;53.50;13.02;;;3.90;99.90;;;;;;5045145;28;20071;-74
2022/01/12 06:39:49;;;;;;;36.47;11.73;;;3.90;99.90;;;;;;5045500;28;20029;-74
2022/01/12 06:42:14;;;;;;;26.50;10.15;;;3.90;99.90;;;;;;5027189;28;20021;-74
2022/01/12 06:44:40;;;;;;;31.23;11.52;;;3.90;99.90;;;;;;5045415;28;20201;-75
2022/01/12 06:47:06;;;;;;;37.28;10.65;;;3.90;99.90;;;;;;5027845;28;20041;-72
2022/01/12 06:49:31;;;;;;;30.92;11.02;;;3.90;99.90;;;;;;5044802;28;20034;-73
2022/01/12 06:52:00;;;;;;;27.33;10.50;;;3.90;99.90;;;;;;5045218;28;20097;-73
2022/01/12 06:54:26;;;;;;;29.85;11.02;;;3.90;99.90;;;;;;5045215;28;20057;-73
2022/01/12 06:56:52;;;;;;;46.30;10.23;;;3.90;99.90;;;;;;5044630;28;20085;-73
2022/01/12 06:59:17;;;;;;;36.40;10.38;;;4.00;99.90;;;;;;5027454;28;20040;-73
2022/01/12 07:01:44;;;;;;;51.03;13.48;;;4.10;99.90;;;;;;5045105;28;20026;-75
2022/01/12 07:04:10;;;;;;;39.30;11.60;;;4.00;99.90;;;;;;5044815;28;20060;-73
2022/01/12 07:06:35;;;;;;;34.90;10.32;;;4.00;99.90;;;;;;5045260;28;20049;-73
2022/01/12 07:09:02;;;;;;;40.70;11.25;;;3.90;99.90;;;;;;5044968;28;20037;-73
2022/01/12 07:11:28;;;;;;;33.22;9.10;;;3.90;99.90;;;;;;5027079;28;21208;-73
2022/01/12 07:13:53;;;;;;;29.02;11.20;;;4.00;99.90;;;;;;5044986;28;20025;-73
2022/01/12 07:16:19;;;;;;;41.17;10.68;;;4.00;99.90;;;;;;5045058;28;20037;-74
2022/01/12 07:18:45;;;;;;;29.83;11.00;;;3.90;99.90;;;;;;5044063;28;20024;-74
2022/01/12 07:21:10;;;;;;;32.30;11.52;;;4.00;99.90;;;;;;5044894;28;20068;-74
2022/01/12 07:23:36;;;;;;;35.58;11.18;;;3.90;99.90;;;;;;5045067;28;20040;-73
2022/01/12 07:26:02;;;;;;;50.40;14.48;;;3.90;99.90;;;;;;5044290;28;20037;-74
2022/01/12 07:28:27;;;;;;;35.88;12.10;;;4.00;99.90;;;;;;5048032;28;20397;-75
2022/01/12 07:30:53;;;;;;;38.20;12.32;;;3.90;99.90;;;;;;5044688;28;20108;-75
2022/01/12 07:33:20;;;;;;;35.20;11.15;;;3.90;99.90;;;;;;5044524;28;20036;-75
2022/01/12 07:35:46;;;;;;;33.35;12.25;;;4.00;99.90;;;;;;5044715;28;20417;-75
2022/01/12 07:38:13;;;;;;;33.70;10.85;;;4.00;99.90;;;;;;5026544;28;20029;-76
2022/01/12 07:40:39;;;;;;;38.92;11.70;;;4.00;99.90;;;;;;5044705;28;20063;-74
2022/01/12 07:43:06;;;;;;;33.97;12.05;;;4.00;99.90;;;;;;5044780;28;20056;-74
2022/01/12 07:45:33;;;;;;;32.45;11.27;;;4.00;99.90;;;;;;5026725;28;20120;-75
2022/01/12 07:47:58;;;;;;;37.55;11.38;;;4.00;99.90;;;;;;5040042;28;20122;-76
2022/01/12 07:50:24;;;;;;;27.23;10.20;;;4.00;99.90;;;;;;5047784;28;20097;-77
2022/01/12 07:52:53;;;;;;;31.02;10.45;;;4.10;99.90;;;;;;5028720;28;20090;-73
2022/01/12 07:55:35;;;;;;;43.50;12.90;;;4.20;99.90;;;;;;5047168;28;20022;-76
2022/01/12 07:58:00;;;;;;;33.17;11.82;;;4.10;99.90;;;;;;5025600;28;20038;-75
2022/01/12 08:00:27;;;;;;;30.85;10.18;;;4.20;99.90;;;;;;5045598;28;20026;-75
2022/01/12 08:02:53;;;;;;;31.50;11.43;;;4.20;99.90;;;;;;5048285;28;20026;-76
2022/01/12 08:05:19;;;;;;;39.53;11.43;;;4.20;99.90;;;;;;5030365;28;20025;-75
2022/01/12 08:07:47;;;;;;;36.95;11.57;;;4.30;99.90;;;;;;5030058;28;20079;-74
2022/01/12 08:10:13;;;;;;;40.92;11.57;;;4.30;99.90;;;;;;5030429;28;20060;-76
2022/01/12 08:12:38;;;;;;;42.83;11.48;;;4.50;99.90;;;;;;5048181;28;20037;-76
2022/01/12 08:15:06;;;;;;;42.38;10.88;;;4.40;99.90;;;;;;5046603;28;20056;-75
2022/01/12 08:17:33;;;;;;;32.78;10.50;;;4.40;99.90;;;;;;5030365;28;20086;-75
2022/01/12 08:20:03;;;;;;;36.38;11.50;;;4.40;99.90;;;;;;5029674;28;20042;-79
2022/01/12 08:22:28;;;;;;;34.55;12.05;;;4.50;99.90;;;;;;5029653;28;20468;-77
2022/01/12 08:24:54;;;;;;;30.58;9.80;;;4.50;99.90;;;;;;5030461;28;20493;-76
2022/01/12 08:27:20;;;;;;;36.80;11.48;;;4.50;99.90;;;;;;5047463;28;20041;-76
2022/01/12 08:29:46;;;;;;;44.40;12.73;;;4.50;99.90;;;;;;5030229;28;20477;-77
2022/01/12 08:32:11;;;;;;;38.05;11.60;;;4.50;99.90;;;;;;5047216;28;20481;-73
2022/01/12 08:34:37;;;;;;;26.02;9.15;;;4.50;99.90;;;;;;5029778;28;20041;-76
2022/01/12 08:37:04;;;;;;;34.42;12.00;;;4.60;99.90;;;;;;5046405;28;20034;-76
2022/01/12 08:39:29;;;;;;;30.75;12.45;;;4.50;99.90;;;;;;5030039;28;20025;-76
2022/01/12 08:41:55;;;;;;;27.00;10.30;;;4.50;99.90;;;;;;5047150;28;20068;-75
2022/01/12 08:44:21;;;;;;;35.88;11.32;;;4.50;99.90;;;;;;5047111;28;20036;-76
2022/01/12 08:46:47;;;;;;;37.63;11.60;;;4.50;99.90;;;;;;5047013;28;20029;-76
2022/01/12 08:49:13;;;;;;;32.35;10.23;;;4.40;99.90;;;;;;5029002;28;20029;-76
2022/01/12 08:51:39;;;;;;;29.65;10.50;;;4.40;99.90;;;;;;5028793;28;20025;-77
2022/01/12 08:54:05;;;;;;;27.17;9.20;;;4.50;99.90;;;;;;5047638;28;20048;-75
2022/01/12 08:56:32;;;;;;;24.98;10.55;;;4.50;99.90;;;;;;5046343;28;20136;-77
2022/01/12 08:58:58;;;;;;;38.58;12.25;;;4.50;99.90;;;;;;5046908;28;20021;-76
2022/01/12 09:01:23;;;;;;;32.30;11.85;;;4.50;99.90;;;;;;5034479;28;20106;-77
2022/01/12 09:03:49;;;;;;;33.15;10.80;;;4.50;99.90;;;;;;5036231;28;20029;-76
2022/01/12 09:06:15;;;;;;;27.70;11.85;;;4.50;99.90;;;;;;5046667;28;20431;-76
2022/01/12 09:08:45;;;;;;;34.00;13.18;;;4.50;99.90;;;;;;5046501;28;20029;-77
2022/01/12 09:11:11;;;;;;;45.17;11.70;;;4.50;99.90;;;;;;5028754;28;20045;-76
2022/01/12 09:13:37;;;;;;;31.85;10.77;;;4.50;99.90;;;;;;5028521;28;20056;-77
2022/01/12 09:16:06;;;;;;;36.83;10.60;;;4.60;99.90;;;;;;5045514;28;20029;-77
2022/01/12 09:18:35;;;;;;;27.08;9.88;;;4.50;99.90;;;;;;5046226;28;20021;-76
2022/01/12 09:21:01;;;;;;;31.42;8.88;;;4.60;99.90;;;;;;5027419;28;20053;-74
2022/01/12 09:23:27;;;;;;;23.70;9.55;;;4.70;99.90;;;;;;5045980;28;20085;-74
2022/01/12 09:25:53;;;;;;;50.78;10.27;;;4.60;99.90;;;;;;5043971;28;20052;-73
2022/01/12 09:28:18;;;;;;;56.88;10.07;;;4.60;99.90;;;;;;5045290;28;20041;-75
2022/01/12 09:30:44;;;;;;;51.25;12.05;;;4.70;99.90;;;;;;5046119;28;20052;-74
2022/01/12 09:33:10;;;;;;;66.75;10.32;;;4.80;99.90;;;;;;5045659;28;20048;-76
2022/01/12 09:35:36;;;;;;;28.15;9.15;;;4.80;99.90;;;;;;5046783;28;20060;-74
2022/01/12 09:38:02;;;;;;;28.27;8.68;;;4.70;99.90;;;;;;5027381;28;20030;-74
2022/01/12 09:40:27;;;;;;;31.90;9.32;;;4.70;99.90;;;;;;5033564;28;20030;-75
2022/01/12 09:42:53;;;;;;;27.70;9.40;;;4.70;99.90;;;;;;5028084;28;20026;-73
2022/01/12 09:45:20;;;;;;;17.83;7.93;;;4.70;99.90;;;;;;5046079;28;20025;-76
2022/01/12 09:47:49;;;;;;;31.52;9.40;;;4.80;99.90;;;;;;5028193;28;20066;-75
2022/01/12 09:50:18;;;;;;;35.75;8.45;;;4.70;99.90;;;;;;5029963;28;20038;-75
2022/01/12 09:52:43;;;;;;;21.75;9.23;;;4.70;99.90;;;;;;5034998;28;20025;-76
2022/01/12 09:55:10;;;;;;;24.00;8.98;;;4.70;99.90;;;;;;5025585;28;20097;-76
2022/01/12 09:57:35;;;;;;;27.10;9.07;;;4.80;99.90;;;;;;5046127;28;20022;-76
2022/01/12 10:00:02;;;;;;;34.65;9.85;;;4.90;99.90;;;;;;5045510;28;20035;-75
2022/01/12 10:02:28;;;;;;;35.72;9.55;;;4.80;99.90;;;;;;5027831;28;20444;-75
2022/01/12 10:05:06;;;;;;;23.85;8.55;;;4.90;99.90;;;;;;5045674;28;20030;-73
2022/01/12 10:07:33;;;;;;;26.42;8.30;;;4.90;99.90;;;;;;5044273;28;20187;-74
2022/01/12 10:10:01;;;;;;;35.53;8.43;;;4.90;99.90;;;;;;5045940;28;20029;-75
2022/01/12 10:12:27;;;;;;;27.20;8.25;;;4.90;99.90;;;;;;5027089;28;20116;-74
2022/01/12 10:14:58;;;;;;;30.77;8.45;;;5.00;99.90;;;;;;5027987;28;20032;-76
2022/01/12 10:17:50;;;;;;;23.38;7.63;;;5.10;99.90;;;;;;5028054;28;20485;-74
2022/01/12 10:20:19;;;;;;;21.15;7.88;;;5.20;99.90;;;;;;5041227;28;20057;-75
2022/01/12 10:23:01;;;;;;;27.88;8.60;;;5.20;99.90;;;;;;5027663;28;20022;-74
2022/01/12 10:25:28;;;;;;;26.17;8.88;;;5.40;99.90;;;;;;5041039;28;20085;-74
2022/01/12 10:27:55;;;;;;;32.42;9.70;;;5.50;99.90;;;;;;5041724;28;20097;-75
2022/01/12 10:30:22;;;;;;;20.92;7.68;;;5.60;99.90;;;;;;5044935;28;20038;-74
2022/01/12 10:33:05;;;;;;;25.25;6.93;;;5.60;99.90;;;;;;5027675;28;20105;-74
2022/01/12 10:35:36;;;;;;;28.65;7.82;;;5.60;99.90;;;;;;5027377;28;20037;-74
2022/01/12 10:38:10;;;;;;;24.15;9.07;;;5.60;99.90;;;;;;5040180;28;20029;-76
2022/01/12 10:40:58;;;;;;;34.05;8.63;;;5.60;99.90;;;;;;5042963;28;20029;-73
2022/01/12 10:43:29;;;;;;;19.80;7.90;;;5.60;99.90;;;;;;5037816;28;20065;-73
2022/01/12 10:45:54;;;;;;;18.60;7.47;;;5.50;99.90;;;;;;5040343;28;20021;-74
2022/01/12 10:48:21;;;;;;;24.60;8.23;;;5.50;99.90;;;;;;5037863;28;20116;-74
2022/01/12 10:51:16;;;;;;;20.85;7.70;;;5.50;99.90;;;;;;5023482;28;20053;-73
2022/01/12 10:53:43;;;;;;;24.50;7.35;;;5.60;99.90;;;;;;5034251;28;20045;-76
2022/01/12 10:56:16;;;;;;;21.23;6.13;;;5.60;99.90;;;;;;5042325;28;20025;-74
2022/01/12 10:58:47;;;;;;;24.17;8.45;;;5.70;99.90;;;;;;5025594;28;20059;-74
2022/01/12 11:01:15;;;;;;;28.90;9.20;;;5.70;99.90;;;;;;5041346;28;20481;-76
2022/01/12 11:03:42;;;;;;;22.85;7.72;;;5.80;99.90;;;;;;5033513;28;20030;-75
2022/01/12 11:06:09;;;;;;;19.17;6.88;;;5.90;99.90;;;;;;5024451;28;20045;-72
2022/01/12 11:08:36;;;;;;;20.50;6.85;;;6.10;99.90;;;;;;5041638;28;20037;-74
2022/01/12 11:11:03;;;;;;;20.77;7.13;;;6.20;99.90;;;;;;5025279;28;20093;-74
2022/01/12 11:13:30;;;;;;;21.38;8.02;;;6.30;99.90;;;;;;5043046;28;20029;-73
2022/01/12 11:15:56;;;;;;;22.42;7.95;;;6.30;99.90;;;;;;5042666;28;20033;-74
2022/01/12 11:18:28;;;;;;;17.20;6.70;;;6.50;99.90;;;;;;5042252;28;20029;-74
2022/01/12 11:21:15;;;;;;;17.67;7.13;;;6.60;99.90;;;;;;5036580;28;20065;-75
2022/01/12 11:23:43;;;;;;;26.15;8.10;;;6.80;99.90;;;;;;5042085;28;20021;-74
2022/01/12 11:26:16;;;;;;;25.58;7.35;;;7.00;99.90;;;;;;5025290;28;20520;-74
2022/01/12 11:28:44;;;;;;;18.70;6.38;;;7.10;99.90;;;;;;5042313;28;20037;-74
2022/01/12 11:31:13;;;;;;;31.38;8.50;;;7.20;99.90;;;;;;5041741;28;21200;-73
2022/01/12 11:33:42;;;;;;;31.02;10.13;;;7.50;99.90;;;;;;5023672;28;20518;-75
2022/01/12 11:36:13;;;;;;;25.20;9.02;;;7.80;99.90;;;;;;5042012;28;20032;-75
2022/01/12 11:38:39;;;;;;;27.20;8.45;;;7.90;99.90;;;;;;5024428;28;20076;-73
2022/01/12 11:41:20;;;;;;;28.08;7.78;;;7.80;99.90;;;;;;5042719;28;20030;-73
2022/01/12 11:44:01;;;;;;;24.60;8.13;;;7.70;99.90;;;;;;5041444;28;20041;-74
2022/01/12 11:46:57;;;;;;;21.38;7.47;;;7.50;99.90;;;;;;5005492;28;20041;-73
2022/01/12 11:49:27;;;;;;;21.13;7.40;;;7.30;99.90;;;;;;5024565;28;20041;-73
2022/01/12 11:51:53;;;;;;;20.58;7.65;;;7.20;99.90;;;;;;5041168;28;20093;-73
2022/01/12 11:54:21;;;;;;;14.73;6.28;;;7.00;99.90;;;;;;5023928;28;20078;-72
2022/01/12 11:56:54;;;;;;;24.73;7.20;;;6.90;99.90;;;;;;5028525;28;20038;-74
2022/01/12 11:59:20;;;;;;;27.75;9.07;;;6.80;99.90;;;;;;5041367;28;20030;-74
2022/01/12 12:02:08;;;;;;;18.55;6.90;;;6.70;99.90;;;;;;5042655;28;20110;-74
2022/01/12 12:04:33;;;;;;;25.95;8.65;;;6.70;99.90;;;;;;5042341;28;20030;-74
2022/01/12 12:07:12;;;;;;;23.73;8.32;;;6.70;99.90;;;;;;5042161;28;20041;-73
2022/01/12 12:09:52;;;;;;;19.63;8.15;;;6.70;99.90;;;;;;5042409;28;20038;-73
2022/01/12 12:12:26;;;;;;;28.17;8.77;;;6.80;99.90;;;;;;5040200;28;20026;-75
2022/01/12 12:14:57;;;;;;;25.15;9.55;;;6.80;99.90;;;;;;5029483;28;20431;-75
2022/01/12 12:17:25;;;;;;;27.45;9.00;;;6.90;99.90;;;;;;5024149;28;20044;-74
2022/01/12 12:19:51;;;;;;;26.73;7.45;;;6.90;99.90;;;;;;5022735;28;20113;-74
2022/01/12 12:22:20;;;;;;;30.35;9.38;;;7.00;99.90;;;;;;5041582;28;20038;-73
2022/01/12 12:24:52;;;;;;;22.13;8.30;;;7.10;99.90;;;;;;5024476;28;20438;-74
2022/01/12 12:27:20;;;;;;;21.02;5.65;;;7.20;99.90;;;;;;5024030;28;20449;-74
2022/01/12 12:29:51;;;;;;;24.10;5.70;;;7.20;99.90;;;;;;5024777;28;20044;-75
2022/01/12 12:32:20;;;;;;;18.70;6.03;;;7.10;99.90;;;;;;5041083;28;20033;-75
2022/01/12 12:34:48;;;;;;;22.92;6.05;;;7.00;99.90;;;;;;5041183;28;20116;-75
2022/01/12 12:37:17;;;;;;;15.52;6.35;;;6.90;99.90;;;;;;5045619;28;20025;-75
2022/01/12 12:39:46;;;;;;;26.52;6.90;;;6.90;99.90;;;;;;5044162;28;20037;-75
2022/01/12 12:42:18;;;;;;;14.07;4.80;;;6.80;99.90;;;;;;5038265;28;20030;-76
2022/01/12 12:44:45;;;;;;;19.77;6.40;;;6.70;99.90;;;;;;5030448;28;20042;-75
2022/01/12 12:47:15;;;;;;;15.38;6.60;;;6.80;99.90;;;;;;5034095;28;20038;-76
2022/01/12 12:49:56;;;;;;;17.45;6.65;;;6.80;99.90;;;;;;5024760;28;20034;-76
2022/01/12 12:52:24;;;;;;;17.38;5.03;;;6.80;99.90;;;;;;5037345;28;20048;-76
2022/01/12 12:54:50;;;;;;;15.00;5.43;;;6.80;99.90;;;;;;5033817;28;20089;-76
2022/01/12 12:57:20;;;;;;;11.93;4.82;;;6.70;99.90;;;;;;5045327;28;20076;-75
2022/01/12 12:59:49;;;;;;;18.92;5.78;;;6.60;99.90;;;;;;5026855;28;20116;-76
2022/01/12 13:02:21;;;;;;;21.08;5.45;;;6.50;99.90;;;;;;5042817;28;20044;-76
2022/01/12 13:04:47;;;;;;;18.42;6.07;;;6.50;99.90;;;;;;5027687;28;20397;-76
2022/01/12 13:07:19;;;;;;;11.18;5.38;;;6.50;99.90;;;;;;5027177;28;20037;-75
2022/01/12 13:09:47;;;;;;;16.35;5.18;;;6.50;99.90;;;;;;5027812;28;20093;-75
2022/01/12 13:12:14;;;;;;;31.35;7.05;;;6.50;99.90;;;;;;5045851;28;20040;-76
2022/01/12 13:14:46;;;;;;;12.95;5.43;;;6.50;99.90;;;;;;5045305;28;20018;-74
2022/01/12 13:17:14;;;;;;;23.23;5.55;;;6.50;99.90;;;;;;5044447;28;20103;-76
2022/01/12 13:22:35;;;;;;;24.83;5.65;;;6.60;99.90;;;;;;5044569;28;20112;-75
2022/01/12 13:25:02;;;;;;;20.95;5.63;;;6.50;99.90;;;;;;5045141;28;20084;-75
2022/01/12 13:27:28;;;;;;;19.08;5.82;;;6.50;99.90;;;;;;5026496;28;20071;-74
2022/01/12 13:29:54;;;;;;;13.90;5.00;;;6.40;99.90;;;;;;5044541;28;20051;-74
2022/01/12 13:32:20;;;;;;;23.75;6.53;;;6.40;99.90;;;;;;5025873;28;20025;-75
2022/01/12 13:34:56;;;;;;;19.95;7.07;;;6.40;99.90;;;;;;5043281;28;20029;-75
2022/01/12 13:37:22;;;;;;;17.15;5.70;;;6.50;99.90;;;;;;5043771;28;20112;-75
2022/01/12 13:40:01;;;;;;;17.13;5.85;;;6.50;99.90;;;;;;5037356;28;20104;-75
2022/01/12 13:42:27;;;;;;;19.20;7.30;;;6.60;99.90;;;;;;5031496;28;20029;-73
2022/01/12 13:45:08;;;;;;;21.20;6.80;;;6.60;99.90;;;;;;5034448;28;20032;-74
2022/01/12 13:47:35;;;;;;;20.83;5.95;;;6.70;99.90;;;;;;5024083;28;20044;-75
2022/01/12 13:50:07;;;;;;;14.80;5.90;;;6.70;99.90;;;;;;5018616;28;20683;-73
2022/01/12 13:52:33;;;;;;;27.05;6.53;;;6.60;99.90;;;;;;5044312;28;20385;-75
2022/01/12 13:55:11;;;;;;;14.00;4.50;;;6.50;99.90;;;;;;5044465;28;20081;-73
2022/01/12 13:57:37;;;;;;;22.40;5.93;;;6.40;99.90;;;;;;5026088;28;20026;-75
2022/01/12 14:00:09;;;;;;;18.55;6.15;;;6.40;99.90;;;;;;5044027;28;20029;-75
2022/01/12 14:02:44;;;;;;;29.98;6.55;;;6.30;99.90;;;;;;5044231;28;20072;-73
2022/01/12 14:05:17;;;;;;;12.88;5.35;;;6.20;99.90;;;;;;5042809;28;20087;-76
2022/01/12 14:08:01;;;;;;;25.05;6.60;;;6.30;99.90;;;;;;5044521;28;20033;-75
2022/01/12 14:10:27;;;;;;;19.92;4.95;;;6.30;99.90;;;;;;5044256;28;20064;-76
2022/01/12 14:12:54;;;;;;;18.95;6.55;;;6.30;99.90;;;;;;5044603;28;20021;-76
2022/01/12 14:15:30;;;;;;;17.77;6.25;;;6.20;99.90;;;;;;5045006;28;20026;-74